Time;durP1;ratioP1;P1;durP2;ratioP2;P2;SDS_P1;SDS_P2;PMS_P1;PMS_P2;Temp;Humidity;BMP_temperature;BMP_pressure;BME280_temperature;BME280_humidity;BME280_pressure;Samples;Min_cycle;Max_cycle;Signal;HPM_P1;HPM_P2
2022/09/17 08:09:46;;;;;;;9.15;2.35;;;;;;;8.47;89.58;96427.88;2108619;27;20564;-68
2022/09/17 08:10:47;;;;;;;13.15;3.47;;;;;;;8.57;89.93;96444.81;2113311;28;20195;-68
2022/09/17 08:11:49;;;;;;;10.93;3.28;;;;;;;8.54;89.23;96436.28;2112341;28;20187;-68
2022/09/17 08:33:32;;;;;;;15.20;2.27;;;;;;;9.94;80.91;96411.19;2063374;27;1338167;-65
2022/09/17 08:34:35;;;;;;;23.10;2.38;;;;;;;10.52;81.06;96441.59;2085268;28;20402;-66
2022/09/17 08:35:36;;;;;;;11.77;2.35;;;;;;;10.66;79.27;96422.66;2083303;28;20282;-66
2022/09/17 08:36:38;;;;;;;20.35;2.47;;;;;;;10.52;79.56;96431.13;2069053;28;20291;-67
2022/09/17 08:37:40;;;;;;;14.13;2.67;;;;;;;10.62;79.05;96444.59;2078750;28;20655;-66
2022/09/17 08:44:07;;;;;;;11.52;2.28;;;;;;;10.71;80.15;96443.31;2079275;28;20181;-66
2022/09/17 08:45:13;;;;;;;17.20;3.72;;;;;;;10.61;78.87;96433.34;2078086;28;20316;-67
2022/09/17 09:01:14;;;;;;;11.15;2.25;;;;;;;9.52;83.55;96454.75;2083614;27;20575;-66
2022/09/17 09:02:26;;;;;;;13.43;2.53;;;;;;;9.52;82.27;96459.13;2058719;28;20234;-67
2022/09/17 09:22:48;;;;;;;15.57;2.60;;;;;;;9.62;82.54;96468.25;2085241;28;20574;-67
2022/09/17 09:24:06;;;;;;;15.30;3.03;;;;;;;9.82;81.07;96469.16;2042530;28;20255;-66
2022/09/17 09:30:57;;;;;;;9.20;2.22;;;;;;;10.24;79.12;96465.50;2083349;28;20585;-67
2022/09/17 09:32:09;;;;;;;10.00;2.40;;;;;;;10.24;78.44;96458.50;2085029;28;20208;-66
2022/09/17 09:33:26;;;;;;;12.13;1.85;;;;;;;10.55;77.59;96464.94;2079509;28;20311;-67
2022/09/17 09:34:28;;;;;;;9.20;2.40;;;;;;;10.77;77.41;96461.31;2075967;28;20236;-67
2022/09/17 09:35:38;;;;;;;10.15;1.75;;;;;;;10.85;76.43;96461.75;2090858;28;20252;-67
2022/09/17 09:36:40;;;;;;;11.82;1.92;;;;;;;11.05;75.19;96462.56;2081023;28;20201;-66
2022/09/17 09:37:49;;;;;;;15.23;2.47;;;;;;;11.40;74.33;96450.34;2082378;28;20232;-67
2022/09/17 09:39:14;;;;;;;8.43;1.75;;;;;;;11.48;73.72;96451.69;2074561;28;20229;-67
2022/09/17 09:40:32;;;;;;;9.18;2.30;;;;;;;11.88;72.75;96462.72;2091057;28;20200;-66
2022/09/17 09:41:53;;;;;;;12.70;2.30;;;;;;;11.84;72.14;96464.63;2086263;28;20283;-67
2022/09/17 09:48:42;;;;;;;8.25;2.42;;;;;;;11.29;73.52;96468.34;2100190;27;20546;-66
2022/09/17 10:08:13;;;;;;;7.85;1.85;;;;;;;14.90;61.81;96451.25;2103030;27;20334;-66
2022/09/17 10:09:19;;;;;;;10.68;2.03;;;;;;;16.22;57.90;96456.47;2078497;28;20345;-66
2022/09/17 10:10:21;;;;;;;12.32;2.00;;;;;;;15.85;58.14;96445.88;2081374;28;20238;-66
2022/09/17 10:11:27;;;;;;;8.90;1.73;;;;;;;16.15;56.96;96460.47;2075572;28;20198;-66
2022/09/17 10:12:29;;;;;;;11.02;1.75;;;;;;;16.70;55.57;96453.06;2080464;28;20288;-66
2022/09/17 10:13:34;;;;;;;8.95;1.80;;;;;;;17.32;53.57;96430.13;2083259;28;20200;-66
2022/09/17 10:14:37;;;;;;;7.25;1.67;;;;;;;17.29;52.97;96436.47;2067277;28;20233;-66
2022/09/17 10:15:38;;;;;;;4.90;1.60;;;;;;;16.77;54.33;96456.94;2077046;28;20200;-66
2022/09/17 10:16:40;;;;;;;6.82;1.23;;;;;;;16.71;54.10;96456.53;2078283;28;20229;-65
2022/09/17 10:17:41;;;;;;;3.83;1.35;;;;;;;17.11;51.89;96448.38;2082514;28;21052;-65
2022/09/17 10:18:43;;;;;;;10.50;1.30;;;;;;;17.82;51.49;96461.53;2070651;28;20240;-65
2022/09/17 10:19:58;;;;;;;9.68;1.70;;;;;;;18.24;51.25;96459.16;2079710;28;20817;-65
2022/09/17 10:21:00;;;;;;;8.05;1.60;;;;;;;18.30;49.63;96449.94;2076715;28;20627;-65
2022/09/17 10:22:19;;;;;;;6.95;1.40;;;;;;;17.30;51.67;96442.56;2080689;28;20284;-65
2022/09/17 10:23:22;;;;;;;5.28;1.52;;;;;;;17.11;51.57;96456.28;2078420;28;20232;-65
2022/09/17 10:24:30;;;;;;;6.47;1.20;;;;;;;17.57;51.38;96459.91;2073534;28;20981;-65
2022/09/17 10:25:33;;;;;;;7.40;1.58;;;;;;;16.59;54.33;96460.91;2088667;28;20234;-66
2022/09/17 10:26:36;;;;;;;7.55;1.48;;;;;;;16.45;56.07;96457.44;2072688;28;20280;-66
2022/09/17 10:27:44;;;;;;;9.23;1.45;;;;;;;17.20;54.69;96450.31;2071739;28;20292;-65
2022/09/17 10:28:50;;;;;;;4.25;1.48;;;;;;;16.78;55.88;96444.59;2062729;28;20759;-65
2022/09/17 10:30:07;;;;;;;7.63;1.33;;;;;;;15.94;56.59;96453.13;2086588;28;20197;-65
2022/09/17 10:31:11;;;;;;;10.18;1.90;;;;;;;15.79;57.05;96452.34;2081972;28;20710;-64
2022/09/17 10:32:18;;;;;;;11.10;1.50;;;;;;;15.25;59.16;96453.38;2080538;28;20203;-65
2022/09/17 10:33:26;;;;;;;9.38;1.50;;;;;;;14.81;60.26;96457.97;2072280;28;20284;-65
2022/09/17 10:34:31;;;;;;;8.07;1.40;;;;;;;14.15;61.75;96468.19;2066072;28;20244;-65
2022/09/17 10:35:33;;;;;;;8.77;1.85;;;;;;;13.77;63.04;96449.56;2085859;28;20234;-66
2022/09/17 10:36:43;;;;;;;11.70;1.80;;;;;;;14.27;61.37;96457.88;2078347;28;20209;-65
2022/09/17 10:37:50;;;;;;;8.68;1.40;;;;;;;14.76;59.41;96444.28;2080490;28;20220;-65
2022/09/17 10:38:51;;;;;;;8.73;1.80;;;;;;;15.43;57.96;96451.28;2072729;28;20287;-65
2022/09/17 10:39:55;;;;;;;5.80;1.35;;;;;;;16.82;53.57;96451.31;2087368;28;20197;-66
2022/09/17 10:41:13;;;;;;;11.32;1.33;;;;;;;16.30;56.19;96440.97;2085923;28;20219;-65
2022/09/17 10:42:16;;;;;;;5.47;1.20;;;;;;;16.04;54.25;96455.97;2078777;28;20642;-65
2022/09/17 10:43:22;;;;;;;4.70;1.40;;;;;;;15.95;54.97;96457.44;2078353;28;20293;-65
2022/09/17 10:44:26;;;;;;;11.85;1.30;;;;;;;16.30;54.16;96448.88;2076936;28;20318;-65
2022/09/17 10:45:30;;;;;;;18.50;2.42;;;;;;;15.77;55.52;96456.91;2088050;28;20231;-66
2022/09/17 10:46:32;;;;;;;6.60;1.00;;;;;;;15.18;55.37;96454.72;2080069;28;20232;-65
2022/09/17 10:47:42;;;;;;;5.97;1.33;;;;;;;14.94;57.85;96442.22;2080671;28;20289;-65
2022/09/17 10:48:55;;;;;;;12.15;1.50;;;;;;;14.94;58.09;96451.91;2072757;28;20197;-65
2022/09/17 10:50:06;;;;;;;7.53;1.30;;;;;;;14.73;58.35;96454.13;2077861;28;20690;-65
2022/09/17 10:51:09;;;;;;;6.57;1.10;;;;;;;14.48;58.82;96453.06;2066831;28;20294;-65
2022/09/17 10:52:17;;;;;;;8.27;1.80;;;;;;;14.76;58.58;96453.97;2071827;28;20658;-65
2022/09/17 10:53:22;;;;;;;7.28;1.35;;;;;;;14.33;58.53;96449.63;2081542;28;20224;-65
2022/09/17 10:54:34;;;;;;;6.70;1.23;;;;;;;14.86;58.15;96457.69;2077416;28;20753;-65
2022/09/17 10:55:54;;;;;;;10.15;1.80;;;;;;;16.68;54.20;96449.69;2088526;28;20649;-65
2022/09/17 10:56:58;;;;;;;6.60;1.23;;;;;;;15.84;55.27;96423.13;2079423;28;20699;-64
2022/09/17 10:58:06;;;;;;;9.98;1.95;;;;;;;14.86;56.73;96448.00;2079025;28;20644;-65
2022/09/17 10:59:21;;;;;;;7.85;1.50;;;;;;;14.98;55.61;96440.25;2071804;28;20217;-65
2022/09/17 11:00:23;;;;;;;6.05;1.50;;;;;;;14.97;55.94;96422.78;2078507;28;20634;-65
2022/09/17 11:01:30;;;;;;;4.28;1.35;;;;;;;14.19;58.34;96440.84;2073246;28;20204;-65
2022/09/17 11:02:50;;;;;;;8.13;1.52;;;;;;;14.77;57.14;96448.59;2079518;28;20676;-65
2022/09/17 11:04:03;;;;;;;10.40;1.38;;;;;;;14.92;56.45;96435.38;2073257;28;20296;-64
2022/09/17 11:05:29;;;;;;;6.57;1.40;;;;;;;15.24;56.40;96438.53;2086241;28;20414;-64
2022/09/17 11:07:07;;;;;;;6.32;1.35;;;;;;;15.12;56.82;96434.94;2082561;28;20204;-64
2022/09/17 11:08:15;;;;;;;6.18;1.30;;;;;;;16.05;55.33;96439.22;2080142;28;20886;-64
2022/09/17 11:09:51;;;;;;;8.43;1.15;;;;;;;17.54;53.27;96429.31;2068482;28;20224;-64
2022/09/17 11:11:22;;;;;;;9.65;1.35;;;;;;;17.14;51.59;96424.41;2078597;28;20335;-65
2022/09/17 11:12:41;;;;;;;3.83;1.55;;;;;;;15.85;53.12;96408.19;2070141;28;20244;-64
2022/09/17 11:14:01;;;;;;;6.43;1.38;;;;;;;16.34;53.59;96425.78;2062931;28;20288;-65
2022/09/17 11:15:18;;;;;;;7.00;1.55;;;;;;;16.73;53.17;96426.47;2082386;28;20221;-64
2022/09/17 11:16:38;;;;;;;6.30;1.15;;;;;;;17.62;50.64;96428.72;2069683;28;20694;-64
2022/09/17 11:18:08;;;;;;;4.10;1.38;;;;;;;17.08;49.93;96428.34;2068493;28;20220;-64
2022/09/17 11:19:31;;;;;;;7.82;1.30;;;;;;;17.15;49.18;96415.53;2068191;28;20217;-64
2022/09/17 11:20:54;;;;;;;2.20;0.90;;;;;;;17.60;49.67;96405.09;2081367;28;20288;-64
2022/09/17 11:22:10;;;;;;;2.58;1.17;;;;;;;16.63;50.92;96409.66;2071666;28;20237;-64
2022/09/17 11:23:48;;;;;;;5.10;1.55;;;;;;;15.83;52.44;96403.84;2066036;28;20632;-64
2022/09/17 11:25:06;;;;;;;10.07;1.85;;;;;;;16.15;51.83;96403.38;2070545;28;20360;-63
2022/09/17 11:26:45;;;;;;;5.15;1.10;;;;;;;16.20;51.06;96408.34;2074993;28;20288;-63
2022/09/17 11:27:58;;;;;;;3.00;0.90;;;;;;;16.69;51.46;96390.75;2072903;28;20280;-64
2022/09/17 11:29:14;;;;;;;9.73;1.60;;;;;;;17.32;49.62;96406.38;2068661;28;20320;-64
2022/09/17 11:30:19;;;;;;;7.43;1.23;;;;;;;17.68;48.48;96415.06;2081932;28;20243;-64
2022/09/17 11:31:35;;;;;;;3.63;1.08;;;;;;;17.18;48.81;96420.59;2077265;28;20239;-64
2022/09/17 11:32:52;;;;;;;3.70;1.10;;;;;;;16.97;48.47;96404.56;2072585;28;20197;-64
2022/09/17 11:34:11;;;;;;;3.83;1.33;;;;;;;17.50;49.20;96401.47;2064791;28;20728;-64
2022/09/17 11:35:14;;;;;;;3.95;1.10;;;;;;;17.16;48.75;96409.31;2078402;28;20221;-63
2022/09/17 11:36:25;;;;;;;3.55;1.25;;;;;;;17.40;48.51;96379.38;2073049;28;20228;-64
2022/09/17 11:37:42;;;;;;;5.82;1.33;;;;;;;16.81;49.09;96404.81;2074307;28;20191;-64
2022/09/17 11:38:48;;;;;;;9.38;1.40;;;;;;;16.39;50.67;96389.41;2064015;28;20196;-64
2022/09/17 11:39:57;;;;;;;4.85;1.02;;;;;;;15.96;52.13;96408.25;2079199;28;20332;-64
2022/09/17 11:41:05;;;;;;;8.02;2.40;;;;;;;16.21;50.01;96406.53;2077717;28;20194;-64
2022/09/17 11:42:14;;;;;;;8.15;3.60;;;;;;;15.47;52.37;96394.03;2073098;28;20226;-63
2022/09/17 11:43:20;;;;;;;10.15;1.55;;;;;;;14.98;53.73;96398.19;2074159;28;20717;-63
2022/09/17 11:44:28;;;;;;;5.65;2.75;;;;;;;14.61;55.18;96395.31;2063718;28;20227;-64
2022/09/17 11:45:38;;;;;;;7.68;1.65;;;;;;;14.09;55.66;96396.84;2078343;28;20197;-64
2022/09/17 11:46:45;;;;;;;4.80;1.13;;;;;;;13.88;56.99;96376.25;2071356;28;20280;-63
2022/09/17 11:48:03;;;;;;;7.40;1.42;;;;;;;14.51;57.54;96408.19;2071446;28;20208;-64
2022/09/17 11:49:11;;;;;;;7.10;1.23;;;;;;;15.02;55.31;96386.53;2064147;28;20312;-64
2022/09/17 11:50:29;;;;;;;7.03;1.17;;;;;;;14.90;54.84;96395.22;2080984;28;20251;-63
2022/09/17 11:51:46;;;;;;;4.22;1.38;;;;;;;14.79;55.01;96399.41;2069431;28;20203;-63
2022/09/17 11:53:25;;;;;;;5.10;1.20;;;;;;;14.74;55.31;96388.38;2074364;28;20309;-63
2022/09/17 11:54:41;;;;;;;11.23;1.50;;;;;;;15.02;55.69;96395.25;2072831;28;20274;-64
2022/09/17 11:56:04;;;;;;;7.88;1.23;;;;;;;14.97;55.36;96397.34;2076956;28;20284;-64
2022/09/17 11:57:15;;;;;;;3.00;0.98;;;;;;;15.18;56.06;96395.09;2070433;28;20247;-64
2022/09/17 11:58:31;;;;;;;4.75;1.10;;;;;;;14.96;54.65;96402.72;2072407;28;20206;-63
2022/09/17 11:59:43;;;;;;;4.13;1.10;;;;;;;14.68;55.41;96386.13;2070326;28;20283;-64
2022/09/17 12:00:53;;;;;;;6.88;1.20;;;;;;;14.63;55.62;96399.53;2078240;28;20691;-64
2022/09/17 12:01:59;;;;;;;5.25;1.10;;;;;;;14.35;55.63;96384.72;2061815;28;20290;-64
2022/09/17 12:03:11;;;;;;;9.13;1.30;;;;;;;14.28;55.81;96404.41;2065244;28;20292;-64
2022/09/17 12:04:29;;;;;;;4.18;1.23;;;;;;;14.47;55.24;96407.53;2068156;28;20313;-63
2022/09/17 12:05:36;;;;;;;4.78;1.10;;;;;;;14.74;54.79;96403.25;2079840;28;20204;-64
2022/09/17 12:06:49;;;;;;;4.75;1.20;;;;;;;14.97;55.14;96402.59;2071028;28;20252;-63
2022/09/17 12:07:59;;;;;;;6.72;1.60;;;;;;;14.93;55.34;96401.13;2068896;28;20242;-64
2022/09/17 12:09:11;;;;;;;5.13;1.27;;;;;;;14.95;54.51;96401.84;2067792;28;20330;-63
2022/09/17 12:10:33;;;;;;;4.70;0.93;;;;;;;15.02;54.46;96404.94;2077537;28;20240;-63
2022/09/17 12:11:53;;;;;;;5.75;1.40;;;;;;;14.67;56.39;96397.56;2064761;28;20267;-63
2022/09/17 12:13:12;;;;;;;4.60;1.20;;;;;;;14.57;56.88;96405.16;2069924;28;20606;-64
2022/09/17 12:14:21;;;;;;;4.88;1.20;;;;;;;13.79;57.58;96397.81;2073185;28;20303;-63
2022/09/17 12:19:47;;;;;;;9.32;1.90;;;;;;;12.70;63.58;96419.03;2077974;28;20578;-63
2022/09/17 12:20:53;;;;;;;3.15;1.20;;;;;;;12.65;66.89;96418.44;2087162;28;20753;-63
2022/09/17 12:27:59;;;;;;;3.22;1.20;;;;;;;12.03;76.20;96430.53;2101495;27;20561;-66
2022/09/17 12:36:16;;;;;;;11.77;1.73;;;;;;;11.57;82.01;96422.47;2086396;28;20555;-66
2022/09/17 13:03:02;;;;;;;3.88;1.45;;;;;;;9.49;88.83;96444.47;2085883;28;20534;-68
2022/09/17 13:08:15;;;;;;;5.28;1.38;;;;;;;9.92;87.98;96453.00;2089900;28;21062;-68
2022/09/17 13:09:25;;;;;;;5.75;1.83;;;;;;;9.96;87.79;96451.09;2063411;28;20628;-68
2022/09/17 13:11:12;;;;;;;5.38;1.60;;;;;;;10.07;87.96;96451.47;2066102;28;20232;-68
2022/09/17 13:12:26;;;;;;;3.55;1.25;;;;;;;10.39;86.65;96446.53;2059985;28;20645;-67
2022/09/17 13:13:48;;;;;;;4.43;1.15;;;;;;;10.67;83.66;96431.34;2058354;28;20232;-67
2022/09/17 13:15:25;;;;;;;8.07;1.52;;;;;;;11.49;83.26;96442.94;2055405;28;20546;-68
2022/09/17 13:16:41;;;;;;;2.28;1.13;;;;;;;11.33;82.01;96441.13;2063840;28;20292;-68
2022/09/17 13:18:24;;;;;;;2.72;0.95;;;;;;;11.46;82.58;96425.63;2060182;28;20194;-68
2022/09/17 13:19:49;;;;;;;2.25;1.00;;;;;;;11.93;79.82;96439.75;2060198;28;20607;-68
2022/09/17 13:21:02;;;;;;;3.67;1.20;;;;;;;12.58;76.10;96439.75;2069112;28;20284;-68
2022/09/17 13:22:18;;;;;;;2.28;0.80;;;;;;;13.28;76.48;96433.16;2056739;28;20211;-68
2022/09/17 13:23:36;;;;;;;3.00;1.05;;;;;;;13.38;75.52;96415.13;2056722;28;20700;-68
2022/09/17 13:24:40;;;;;;;3.60;1.20;;;;;;;13.62;72.65;96419.84;2054271;28;20294;-68
2022/09/17 13:25:53;;;;;;;3.60;0.90;;;;;;;13.71;72.32;96417.50;2056943;28;20210;-68
2022/09/17 13:26:57;;;;;;;7.93;1.50;;;;;;;13.71;70.53;96399.16;2061110;28;20202;-68
2022/09/17 13:28:10;;;;;;;4.28;1.10;;;;;;;13.61;73.25;96428.63;2059251;28;20439;-67
2022/09/17 13:29:32;;;;;;;4.13;1.23;;;;;;;13.58;73.44;96419.19;2060032;28;20327;-67
2022/09/17 13:30:59;;;;;;;6.60;1.05;;;;;;;13.01;71.83;96422.50;2073540;28;20287;-68
2022/09/17 13:32:00;;;;;;;3.65;1.40;;;;;;;12.86;73.98;96418.97;2058884;28;20635;-68
2022/09/17 13:33:02;;;;;;;9.85;1.00;;;;;;;12.93;74.61;96407.22;2059699;28;20289;-68
2022/09/17 13:34:16;;;;;;;5.25;1.02;;;;;;;13.14;75.70;96420.88;2056609;28;20226;-67
2022/09/17 13:35:17;;;;;;;4.07;1.00;;;;;;;13.04;72.36;96412.69;2068022;28;20282;-68
2022/09/17 13:36:40;;;;;;;10.07;1.48;;;;;;;12.62;71.96;96401.13;2059805;28;20235;-68
2022/09/17 13:37:43;;;;;;;7.03;1.55;;;;;;;12.60;73.55;96404.78;2060028;28;20283;-67
2022/09/17 13:38:44;;;;;;;5.15;0.90;;;;;;;12.37;72.23;96405.13;2057383;28;20232;-67
2022/09/17 13:39:49;;;;;;;5.65;0.90;;;;;;;12.27;74.92;96410.97;2074509;28;20293;-66
2022/09/17 13:40:51;;;;;;;7.55;2.28;;;;;;;12.54;75.23;96417.28;2063416;28;20589;-66
2022/09/17 13:42:05;;;;;;;4.18;1.52;;;;;;;12.32;77.27;96390.63;2055542;28;20282;-68
2022/09/17 13:43:12;;;;;;;9.88;1.20;;;;;;;12.39;75.15;96408.50;2058612;28;20894;-68
2022/09/17 13:44:22;;;;;;;3.92;1.30;;;;;;;12.62;75.68;96422.09;2051046;28;20314;-67
2022/09/17 13:45:25;;;;;;;2.55;1.10;;;;;;;12.54;74.59;96413.81;2067193;28;20329;-67
2022/09/17 13:46:27;;;;;;;6.53;1.40;;;;;;;12.55;73.63;96415.50;2058244;28;20287;-68
2022/09/17 13:47:35;;;;;;;4.40;1.55;;;;;;;12.76;74.75;96412.59;2057364;28;20628;-67
2022/09/17 13:48:48;;;;;;;5.57;0.85;;;;;;;12.66;73.31;96402.63;2054787;28;20219;-66
2022/09/17 13:49:53;;;;;;;3.88;1.00;;;;;;;12.81;71.74;96400.94;2056829;28;20263;-66
2022/09/17 13:50:55;;;;;;;6.00;1.00;;;;;;;13.09;70.81;96409.81;2055564;28;20199;-67
2022/09/17 13:51:57;;;;;;;3.05;1.00;;;;;;;13.31;70.59;96405.91;2055179;28;20199;-67
2022/09/17 13:53:06;;;;;;;4.85;1.10;;;;;;;13.26;69.59;96406.19;2058596;28;20258;-68
2022/09/17 13:54:09;;;;;;;4.50;1.27;;;;;;;12.94;71.84;96400.19;2057418;28;20264;-68
2022/09/17 13:55:41;;;;;;;5.22;1.20;;;;;;;13.00;71.38;96402.47;2075289;28;20639;-68
2022/09/17 13:57:05;;;;;;;4.75;1.35;;;;;;;13.78;69.49;96398.78;2059690;28;20289;-68
2022/09/17 13:58:11;;;;;;;2.65;1.08;;;;;;;14.37;68.30;96395.94;2055903;28;20694;-69
2022/09/17 13:59:20;;;;;;;4.43;1.30;;;;;;;14.29;69.41;96398.22;2060197;28;20221;-69
2022/09/17 14:00:55;;;;;;;8.18;1.55;;;;;;;14.08;66.63;96403.91;2073464;28;20764;-69
2022/09/17 14:02:17;;;;;;;5.63;1.30;;;;;;;13.77;69.90;96404.94;2060504;28;20210;-68
2022/09/17 14:03:35;;;;;;;11.00;1.40;;;;;;;13.98;69.40;96410.63;2066163;28;20383;-68
2022/09/17 14:04:40;;;;;;;2.60;1.10;;;;;;;14.33;67.95;96404.97;2055855;28;20257;-68
2022/09/17 14:05:41;;;;;;;5.82;1.45;;;;;;;14.18;66.12;96383.13;2058566;28;20744;-68
2022/09/17 14:06:50;;;;;;;9.30;1.55;;;;;;;14.41;67.64;96399.22;2055310;28;20207;-69
2022/09/17 14:08:12;;;;;;;5.57;1.35;;;;;;;14.37;68.79;96402.06;2054986;28;20234;-68
2022/09/17 14:09:32;;;;;;;6.10;1.45;;;;;;;14.90;68.07;96401.31;2060055;28;20291;-68
2022/09/17 14:10:41;;;;;;;8.70;1.33;;;;;;;14.43;65.79;96400.81;2074428;28;20332;-68
2022/09/17 14:11:42;;;;;;;2.85;0.93;;;;;;;13.67;66.91;96395.00;2064601;28;20237;-68
2022/09/17 14:12:47;;;;;;;6.03;1.52;;;;;;;14.04;67.59;96392.75;2066913;28;20840;-68
2022/09/17 14:13:52;;;;;;;5.75;1.00;;;;;;;14.82;65.85;96378.16;2050622;28;20346;-68
2022/09/17 14:14:54;;;;;;;5.63;1.40;;;;;;;15.08;63.69;96391.34;2070604;28;20209;-67
2022/09/17 14:16:00;;;;;;;4.28;1.33;;;;;;;15.09;62.07;96385.16;2063721;28;20601;-69
2022/09/17 14:17:03;;;;;;;7.38;1.23;;;;;;;15.13;63.51;96399.78;2054716;28;20203;-67
2022/09/17 14:18:26;;;;;;;4.18;1.30;;;;;;;14.53;63.32;96396.66;2055752;28;21130;-68
2022/09/17 14:19:45;;;;;;;4.93;1.30;;;;;;;13.72;66.29;96399.97;2056492;28;20256;-67
2022/09/17 14:21:23;;;;;;;2.95;1.20;;;;;;;13.16;68.22;96400.63;2063396;28;20290;-67
2022/09/17 14:22:25;;;;;;;5.60;1.42;;;;;;;13.05;70.27;96392.56;2053235;28;20283;-67
2022/09/17 14:23:27;;;;;;;4.10;1.20;;;;;;;13.18;69.96;96393.53;2050562;28;20214;-67
2022/09/17 14:24:45;;;;;;;3.80;1.23;;;;;;;13.23;70.07;96391.47;2050241;28;21015;-68
2022/09/17 14:25:53;;;;;;;6.30;1.17;;;;;;;13.37;69.00;96395.09;2067326;28;20201;-68
2022/09/17 14:27:01;;;;;;;7.45;1.10;;;;;;;13.30;68.94;96397.19;2065538;28;20301;-68
2022/09/17 14:28:12;;;;;;;2.55;0.95;;;;;;;12.98;69.21;96383.38;2052924;28;20299;-67
2022/09/17 14:29:22;;;;;;;5.38;1.33;;;;;;;12.96;69.53;96395.72;2053488;28;20316;-67
2022/09/17 14:30:30;;;;;;;3.63;1.05;;;;;;;13.32;70.10;96399.72;2068176;28;20209;-68
2022/09/17 14:31:35;;;;;;;5.32;1.38;;;;;;;13.83;68.57;96404.56;2057465;28;20206;-67
2022/09/17 14:32:50;;;;;;;3.45;1.00;;;;;;;13.42;66.96;96397.44;2052341;28;20202;-67
2022/09/17 14:33:52;;;;;;;5.28;1.10;;;;;;;13.08;68.07;96397.63;2046924;28;20667;-67
2022/09/17 14:34:53;;;;;;;9.27;1.75;;;;;;;13.19;69.45;96392.59;2068757;28;20286;-68
2022/09/17 14:36:09;;;;;;;6.43;1.20;;;;;;;13.54;68.05;96387.03;2060629;28;20239;-67
2022/09/17 14:37:15;;;;;;;8.20;1.35;;;;;;;13.34;68.11;96385.56;2049714;29;20287;-68
2022/09/17 14:38:24;;;;;;;6.25;1.35;;;;;;;13.47;68.69;96396.22;2054164;28;20289;-68
2022/09/17 14:39:37;;;;;;;6.03;1.10;;;;;;;13.61;67.14;96376.19;2052422;28;20230;-68
2022/09/17 14:40:45;;;;;;;10.75;1.55;;;;;;;14.03;67.67;96382.34;2064597;28;20336;-67
2022/09/17 14:41:47;;;;;;;8.77;1.48;;;;;;;14.56;66.31;96376.38;2051594;28;20235;-67
2022/09/17 14:42:54;;;;;;;6.10;1.60;;;;;;;15.14;66.32;96364.66;2052326;28;20310;-67
2022/09/17 14:44:18;;;;;;;10.18;1.80;;;;;;;15.24;62.78;96380.66;2046835;28;20207;-66
2022/09/17 14:45:25;;;;;;;8.57;1.27;;;;;;;15.17;63.21;96374.13;2068337;28;20243;-67
2022/09/17 14:46:36;;;;;;;7.32;1.30;;;;;;;14.61;64.17;96385.63;2055141;28;20290;-67
2022/09/17 14:47:38;;;;;;;3.25;1.30;;;;;;;14.63;64.15;96375.03;2055499;28;20617;-67
2022/09/17 14:48:40;;;;;;;11.27;1.50;;;;;;;14.81;62.76;96391.41;2040634;28;20742;-67
2022/09/17 14:49:41;;;;;;;5.15;1.38;;;;;;;14.35;64.17;96377.66;2065705;28;20290;-68
2022/09/17 14:50:43;;;;;;;7.97;1.50;;;;;;;13.82;65.08;96376.63;2065378;28;20729;-67
2022/09/17 14:55:26;;;;;;;9.57;1.35;;;;;;;13.43;68.95;96392.09;2091139;28;20547;-68
2022/09/17 14:56:28;;;;;;;3.63;1.20;;;;;;;13.47;68.67;96393.59;2090631;28;20284;-67
2022/09/17 14:57:29;;;;;;;5.38;1.50;;;;;;;13.24;69.02;96402.81;2089309;28;20287;-67
2022/09/17 14:58:37;;;;;;;8.43;1.40;;;;;;;12.88;69.41;96390.94;2089901;28;20210;-68
2022/09/17 14:59:51;;;;;;;4.53;1.13;;;;;;;12.77;69.33;96388.91;2087950;28;20352;-68
2022/09/17 15:00:53;;;;;;;7.78;0.93;;;;;;;12.58;68.39;96392.59;2090320;28;20214;-69
2022/09/17 15:01:55;;;;;;;4.90;1.27;;;;;;;12.56;68.64;96396.25;2090405;28;20313;-68
2022/09/17 15:02:59;;;;;;;4.75;1.55;;;;;;;12.77;69.57;96390.69;2090751;28;20205;-68
2022/09/17 15:04:12;;;;;;;4.28;1.40;;;;;;;12.68;67.56;96384.22;2079066;28;20301;-68
2022/09/17 15:05:38;;;;;;;5.90;1.23;;;;;;;12.76;68.18;96396.88;2089991;28;20231;-69
2022/09/17 15:06:41;;;;;;;4.63;1.30;;;;;;;12.52;68.24;96395.56;2087902;28;20195;-69
2022/09/17 15:07:44;;;;;;;9.02;1.50;;;;;;;12.34;69.08;96394.84;2089007;28;20298;-68
2022/09/17 15:08:45;;;;;;;9.80;1.45;;;;;;;12.21;68.79;96391.19;2079928;28;20292;-67
2022/09/17 15:14:33;;;;;;;6.05;1.30;;;;;;;11.84;71.11;96383.53;2074548;28;20576;-67
2022/09/17 15:15:35;;;;;;;8.82;1.38;;;;;;;11.82;73.26;96390.66;2074135;28;20294;-67
2022/09/17 15:16:37;;;;;;;11.50;1.30;;;;;;;11.81;72.05;96390.69;2072591;28;20736;-67
2022/09/17 15:17:41;;;;;;;6.65;1.27;;;;;;;11.74;73.15;96377.13;2081890;28;20207;-67
2022/09/17 15:18:48;;;;;;;5.10;1.33;;;;;;;11.91;73.11;96391.94;2064776;28;20208;-68
2022/09/17 15:19:56;;;;;;;12.05;1.98;;;;;;;12.22;73.51;96390.28;2079970;28;20225;-67
2022/09/17 15:21:00;;;;;;;3.72;1.20;;;;;;;12.71;70.66;96382.25;2073279;28;20287;-68
2022/09/17 15:22:27;;;;;;;6.65;1.52;;;;;;;13.22;68.38;96381.09;2073852;28;20280;-68
2022/09/17 15:23:32;;;;;;;2.85;1.15;;;;;;;13.60;67.91;96392.84;2072819;28;20210;-67
2022/09/17 15:24:55;;;;;;;7.65;1.50;;;;;;;13.91;66.08;96381.31;2072192;28;20244;-67
2022/09/17 15:25:57;;;;;;;3.42;1.42;;;;;;;14.40;64.97;96385.25;2076327;28;20231;-68
2022/09/17 15:27:08;;;;;;;5.45;1.10;;;;;;;14.75;64.46;96381.31;2072762;28;20220;-67
2022/09/17 15:28:35;;;;;;;3.63;1.30;;;;;;;14.47;62.88;96376.00;2071996;28;20661;-67
2022/09/17 15:29:41;;;;;;;5.25;1.15;;;;;;;14.47;63.02;96372.56;2072312;28;20255;-65
2022/09/17 15:30:44;;;;;;;6.65;1.58;;;;;;;14.56;62.31;96376.38;2072688;28;20287;-65
2022/09/17 15:31:45;;;;;;;8.48;1.30;;;;;;;14.06;64.16;96366.38;2074152;28;20193;-65
2022/09/17 15:32:54;;;;;;;5.57;1.10;;;;;;;13.76;65.65;96379.63;2071728;28;20486;-65
2022/09/17 15:33:59;;;;;;;2.10;1.00;;;;;;;14.22;64.98;96384.66;2062812;28;20288;-66
2022/09/17 15:35:10;;;;;;;7.53;1.35;;;;;;;14.48;64.71;96387.38;2077366;28;20211;-65
2022/09/17 15:36:17;;;;;;;7.53;1.40;;;;;;;14.96;62.58;96386.94;2080792;28;20245;-65
2022/09/17 15:37:23;;;;;;;2.63;1.33;;;;;;;15.52;61.28;96394.56;2078222;28;20281;-66
2022/09/17 15:38:27;;;;;;;7.20;1.10;;;;;;;15.26;59.73;96385.81;2070353;28;20212;-65
2022/09/17 15:39:30;;;;;;;5.68;1.35;;;;;;;14.41;62.00;96386.94;2068295;28;21056;-65
2022/09/17 15:40:42;;;;;;;5.25;1.20;;;;;;;14.65;62.30;96399.44;2079763;28;20213;-65
2022/09/17 15:41:54;;;;;;;4.30;1.10;;;;;;;15.16;61.33;96393.47;2071165;28;20281;-66
2022/09/17 15:43:05;;;;;;;8.13;1.60;;;;;;;15.48;60.09;96385.22;2067964;28;20280;-65
2022/09/17 15:44:12;;;;;;;6.45;1.10;;;;;;;14.58;61.46;96392.91;2066819;28;20308;-68
2022/09/17 15:45:37;;;;;;;5.60;1.20;;;;;;;13.61;63.87;96374.41;2080140;28;20726;-67
2022/09/17 15:46:39;;;;;;;9.40;1.73;;;;;;;13.55;65.65;96391.34;2073253;28;20563;-67
2022/09/17 15:51:22;;;;;;;8.40;1.50;;;;;;;13.58;65.81;96390.31;2099675;27;20559;-64
2022/09/17 15:52:30;;;;;;;3.60;1.08;;;;;;;13.45;66.65;96394.63;2099631;28;20237;-65
2022/09/17 15:53:33;;;;;;;2.90;1.10;;;;;;;13.43;66.62;96388.63;2098063;28;20207;-65
2022/09/17 15:54:36;;;;;;;6.72;1.30;;;;;;;13.46;65.92;96388.44;2089327;28;20337;-65
2022/09/17 15:55:41;;;;;;;7.18;1.25;;;;;;;13.65;65.96;96372.41;2101155;28;20230;-65
2022/09/17 15:56:43;;;;;;;7.13;1.48;;;;;;;13.79;66.70;96382.06;2093436;28;20282;-65
2022/09/17 15:57:44;;;;;;;5.32;1.25;;;;;;;13.95;65.09;96384.59;2092790;28;20286;-65
2022/09/17 15:58:45;;;;;;;6.35;1.17;;;;;;;14.48;64.72;96385.59;2084036;28;20804;-65
2022/09/17 15:59:48;;;;;;;3.85;1.20;;;;;;;14.39;63.40;96388.81;2082356;28;20192;-65
2022/09/17 16:01:14;;;;;;;5.97;1.17;;;;;;;14.26;64.23;96387.91;2082061;28;20320;-65
2022/09/17 16:02:30;;;;;;;8.25;1.30;;;;;;;14.47;62.75;96380.44;2080628;28;20232;-67
2022/09/17 16:03:57;;;;;;;9.52;1.08;;;;;;;14.50;61.33;96385.47;2082825;28;20709;-67
2022/09/17 16:05:24;;;;;;;3.90;1.27;;;;;;;14.46;61.57;96384.00;2089994;28;20326;-67
2022/09/17 16:06:26;;;;;;;3.65;1.33;;;;;;;14.39;61.01;96380.09;2086731;28;20290;-67
2022/09/17 16:07:29;;;;;;;6.93;1.30;;;;;;;14.34;61.70;96388.28;2091683;28;20256;-67
2022/09/17 16:08:34;;;;;;;6.82;1.10;;;;;;;14.07;63.04;96360.19;2094061;28;20768;-67
2022/09/17 16:09:46;;;;;;;7.53;1.35;;;;;;;14.20;63.00;96392.59;2088077;28;20331;-68